Time;durP1;ratioP1;P1;durP2;ratioP2;P2;SDS_P1;SDS_P2;PMS_P1;PMS_P2;Temp;Humidity;BMP_temperature;BMP_pressure;BME280_temperature;BME280_humidity;BME280_pressure;Samples;Min_cycle;Max_cycle;Signal;HPM_P1;HPM_P2
2023/02/26 00:02:09;;;;;;;4.07;2.78;;;2.50;99.50;;;;;;5025588;28;20187;-67
2023/02/26 00:04:35;;;;;;;4.93;2.00;;;2.70;99.50;;;;;;5028625;28;20548;-67
2023/02/26 00:07:03;;;;;;;2.95;2.65;;;3.20;99.40;;;;;;5026751;28;20245;-67
2023/02/26 00:09:29;;;;;;;3.00;2.15;;;3.20;99.70;;;;;;5025117;28;20211;-67
2023/02/26 00:11:55;;;;;;;3.47;2.10;;;3.00;99.40;;;;;;5025925;28;20225;-68
2023/02/26 00:14:21;;;;;;;2.80;2.47;;;3.00;99.30;;;;;;5027394;28;20279;-68
2023/02/26 00:17:25;;;;;;;3.27;2.30;;;3.10;99.50;;;;;;5027617;28;20183;-67
2023/02/26 00:19:51;;;;;;;3.90;2.60;;;2.80;99.50;;;;;;5022194;28;20449;-67
2023/02/26 00:22:17;;;;;;;2.53;2.25;;;3.10;99.90;;;;;;5026723;28;20178;-67
2023/02/26 00:24:43;;;;;;;4.20;2.60;;;2.90;99.90;;;;;;5025219;28;20213;-67
2023/02/26 00:27:10;;;;;;;3.73;2.43;;;2.30;99.50;;;;;;5027465;28;20811;-67
2023/02/26 00:29:37;;;;;;;4.70;2.65;;;2.20;99.20;;;;;;5016305;28;20205;-68
2023/02/26 00:32:03;;;;;;;5.68;2.80;;;2.60;99.60;;;;;;5025831;28;20738;-67
2023/02/26 00:34:29;;;;;;;2.45;2.10;;;2.70;99.40;;;;;;5025886;28;20636;-67
2023/02/26 00:37:11;;;;;;;2.40;2.20;;;2.80;99.90;;;;;;5030274;28;20183;-67
2023/02/26 00:39:46;;;;;;;2.65;2.42;;;2.30;99.50;;;;;;5024465;28;20476;-67
2023/02/26 00:42:12;;;;;;;3.25;2.42;;;2.50;99.60;;;;;;5028245;28;20718;-67
2023/02/26 00:44:39;;;;;;;3.80;3.08;;;2.60;99.40;;;;;;5024869;28;20249;-67
2023/02/26 00:47:37;;;;;;;3.42;2.42;;;2.90;99.90;;;;;;5026210;28;20199;-68
2023/02/26 00:50:18;;;;;;;2.35;2.15;;;2.40;99.50;;;;;;5024453;28;20190;-67
2023/02/26 00:53:01;;;;;;;3.08;2.55;;;2.40;99.80;;;;;;5027480;28;20186;-67
2023/02/26 00:55:27;;;;;;;3.17;2.55;;;2.30;99.90;;;;;;5027679;28;20186;-68
2023/02/26 00:57:53;;;;;;;4.75;2.28;;;2.30;99.90;;;;;;5026966;28;20207;-68
2023/02/26 01:00:19;;;;;;;2.80;2.20;;;2.50;99.90;;;;;;5025901;28;20182;-68
2023/02/26 01:02:45;;;;;;;4.18;2.35;;;2.20;99.90;;;;;;5024064;28;20246;-68
2023/02/26 01:05:12;;;;;;;2.78;2.25;;;2.60;99.90;;;;;;5026635;28;20193;-68
2023/02/26 01:07:43;;;;;;;3.47;2.30;;;2.60;99.50;;;;;;5027502;28;20215;-68
2023/02/26 01:10:10;;;;;;;2.45;2.25;;;2.60;99.90;;;;;;5027107;28;20278;-68
2023/02/26 01:12:36;;;;;;;2.50;2.30;;;2.40;99.80;;;;;;5026313;28;20187;-68
2023/02/26 01:15:03;;;;;;;2.65;2.45;;;2.00;99.90;;;;;;5024448;28;20190;-67
2023/02/26 01:17:44;;;;;;;3.60;2.33;;;2.20;99.90;;;;;;5024591;28;20737;-68
2023/02/26 01:20:19;;;;;;;4.47;2.50;;;2.40;99.90;;;;;;5026778;28;20205;-67
2023/02/26 01:23:00;;;;;;;4.05;2.45;;;1.40;99.90;;;;;;5030519;28;20200;-68
2023/02/26 01:25:40;;;;;;;3.30;2.78;;;1.90;99.90;;;;;;5030837;28;20545;-68
2023/02/26 01:28:06;;;;;;;3.88;2.45;;;2.10;99.90;;;;;;5031664;28;20216;-68
2023/02/26 01:30:32;;;;;;;2.60;2.40;;;1.90;99.90;;;;;;5031050;28;20294;-68
2023/02/26 01:33:22;;;;;;;2.88;2.30;;;2.00;99.90;;;;;;5029831;28;20190;-68
2023/02/26 01:35:52;;;;;;;2.00;1.90;;;1.20;99.80;;;;;;5029142;28;20190;-68
2023/02/26 01:38:46;;;;;;;3.88;2.33;;;1.20;99.90;;;;;;5028720;28;20198;-67
2023/02/26 01:41:30;;;;;;;5.20;2.70;;;1.70;99.90;;;;;;5030785;28;20223;-67
2023/02/26 01:44:08;;;;;;;6.68;2.22;;;1.60;99.90;;;;;;5029458;28;20197;-67
2023/02/26 01:46:52;;;;;;;3.65;2.80;;;1.60;99.90;;;;;;5029495;28;20704;-68
2023/02/26 01:49:19;;;;;;;5.38;3.10;;;1.80;99.90;;;;;;5030449;28;20256;-67
2023/02/26 01:51:48;;;;;;;4.53;2.47;;;1.80;99.90;;;;;;5028109;28;20214;-68
2023/02/26 01:54:16;;;;;;;3.20;2.67;;;1.60;99.90;;;;;;5029289;28;20199;-67
2023/02/26 01:56:44;;;;;;;9.98;3.00;;;2.00;99.90;;;;;;5030872;28;20566;-67
2023/02/26 01:59:14;;;;;;;4.13;2.50;;;1.50;99.90;;;;;;5028062;28;20203;-68
2023/02/26 02:01:40;;;;;;;2.67;2.22;;;1.50;99.90;;;;;;5027434;28;20243;-68
2023/02/26 02:04:11;;;;;;;2.97;2.10;;;1.20;99.90;;;;;;5029007;28;20191;-68
2023/02/26 02:06:37;;;;;;;3.63;2.25;;;1.40;99.90;;;;;;5044831;28;20186;-67
2023/02/26 02:09:08;;;;;;;3.55;2.30;;;0.90;99.90;;;;;;5023972;28;20581;-68
2023/02/26 02:11:37;;;;;;;1.95;1.85;;;1.80;99.90;;;;;;5029334;28;20639;-68
2023/02/26 02:14:28;;;;;;;2.00;1.75;;;1.60;99.90;;;;;;5025868;28;20248;-68
2023/02/26 02:17:27;;;;;;;2.65;2.35;;;1.40;99.90;;;;;;5024034;28;20222;-68
2023/02/26 02:19:59;;;;;;;4.25;2.40;;;1.30;99.90;;;;;;5018796;28;20194;-68
2023/02/26 02:23:09;;;;;;;2.55;2.30;;;1.40;99.90;;;;;;5032182;28;20187;-68
2023/02/26 02:25:53;;;;;;;2.53;1.90;;;1.50;99.90;;;;;;5028952;28;20687;-68
2023/02/26 02:28:31;;;;;;;3.95;2.00;;;1.50;99.90;;;;;;5027476;28;20558;-68
2023/02/26 02:31:11;;;;;;;3.00;2.67;;;1.00;99.90;;;;;;5028971;28;20232;-67
2023/02/26 02:33:50;;;;;;;4.30;2.30;;;1.10;99.90;;;;;;5028172;28;20173;-67
2023/02/26 02:36:45;;;;;;;4.30;2.75;;;0.60;99.90;;;;;;5031758;28;20201;-68
2023/02/26 02:39:33;;;;;;;5.72;2.80;;;1.30;99.90;;;;;;5026723;28;20298;-67
2023/02/26 02:42:07;;;;;;;5.47;3.17;;;0.90;99.90;;;;;;5030199;28;20656;-67
2023/02/26 02:44:37;;;;;;;3.33;2.60;;;1.10;99.90;;;;;;5028514;28;20232;-67
2023/02/26 02:47:05;;;;;;;5.15;2.75;;;1.60;99.90;;;;;;5025884;28;20628;-67
2023/02/26 02:49:35;;;;;;;4.22;2.67;;;0.40;99.90;;;;;;5032025;28;20256;-68
2023/02/26 02:52:15;;;;;;;3.50;2.65;;;0.60;99.90;;;;;;5029785;28;20260;-68
2023/02/26 02:54:50;;;;;;;2.78;2.58;;;0.50;99.90;;;;;;5026232;28;20291;-68
2023/02/26 02:57:26;;;;;;;4.15;2.33;;;0.90;99.90;;;;;;5027928;28;20229;-68
2023/02/26 02:59:59;;;;;;;3.67;2.47;;;1.00;99.90;;;;;;5026936;28;20192;-68
2023/02/26 03:03:04;;;;;;;2.95;2.22;;;1.10;99.90;;;;;;5026584;28;20229;-69
2023/02/26 03:05:30;;;;;;;4.20;2.53;;;0.90;99.90;;;;;;5029143;28;20285;-66
2023/02/26 03:08:01;;;;;;;4.27;1.93;;;1.20;99.90;;;;;;5028402;28;20285;-66
2023/02/26 03:10:27;;;;;;;2.70;2.38;;;1.10;99.90;;;;;;5026143;28;20465;-66
2023/02/26 03:12:53;;;;;;;3.20;2.33;;;1.00;99.90;;;;;;5026639;28;20213;-66
2023/02/26 03:15:31;;;;;;;2.30;2.10;;;0.80;99.90;;;;;;5026094;28;20786;-66
2023/02/26 03:18:13;;;;;;;3.38;2.20;;;1.10;99.90;;;;;;5025719;28;20206;-67
2023/02/26 03:20:56;;;;;;;3.20;2.22;;;0.90;99.90;;;;;;5028488;28;20187;-66
2023/02/26 03:23:30;;;;;;;2.90;2.55;;;0.90;99.90;;;;;;5027933;28;20190;-66
2023/02/26 03:26:06;;;;;;;2.95;2.28;;;1.10;99.90;;;;;;5027381;28;20263;-66
2023/02/26 03:28:46;;;;;;;3.90;2.17;;;1.00;99.90;;;;;;5028702;28;20284;-66
2023/02/26 03:31:26;;;;;;;3.95;2.00;;;1.10;99.90;;;;;;5028960;28;20202;-65
2023/02/26 03:34:18;;;;;;;2.75;2.53;;;1.00;99.90;;;;;;5027035;28;20240;-65
2023/02/26 03:36:56;;;;;;;3.00;2.03;;;1.10;99.90;;;;;;5027534;28;20265;-66
2023/02/26 03:39:24;;;;;;;6.25;2.72;;;1.10;99.90;;;;;;5025196;28;20209;-67
2023/02/26 03:42:09;;;;;;;3.20;2.20;;;0.90;99.90;;;;;;5026424;28;20655;-68
2023/02/26 03:44:53;;;;;;;2.78;2.00;;;0.90;99.90;;;;;;5026960;28;20186;-68
2023/02/26 03:47:19;;;;;;;2.00;1.60;;;1.00;99.90;;;;;;5023953;28;20216;-68
2023/02/26 03:49:57;;;;;;;2.70;2.25;;;1.00;99.90;;;;;;5027319;28;20236;-67
2023/02/26 03:52:25;;;;;;;5.38;2.33;;;1.10;99.90;;;;;;5021500;28;20189;-65
2023/02/26 03:54:56;;;;;;;4.25;2.08;;;0.90;99.90;;;;;;5027687;28;20182;-68
2023/02/26 03:57:21;;;;;;;2.40;2.03;;;0.90;99.90;;;;;;5027102;28;20258;-68
2023/02/26 03:59:47;;;;;;;2.57;2.37;;;0.50;99.90;;;;;;5028540;28;20269;-68
2023/02/26 04:02:34;;;;;;;2.57;2.30;;;1.10;99.90;;;;;;5027132;28;20195;-68
2023/02/26 04:05:06;;;;;;;2.70;2.13;;;0.90;99.90;;;;;;5022993;28;20226;-66
2023/02/26 04:07:32;;;;;;;2.05;1.75;;;1.00;99.90;;;;;;5027729;28;20232;-68
2023/02/26 04:09:58;;;;;;;5.73;2.37;;;0.90;99.90;;;;;;5026772;28;20225;-65
2023/02/26 04:12:26;;;;;;;2.23;2.13;;;0.50;99.90;;;;;;5029182;28;20194;-69
2023/02/26 04:14:52;;;;;;;3.25;2.40;;;0.90;99.90;;;;;;5027020;28;20194;-68
2023/02/26 04:17:18;;;;;;;3.80;2.40;;;0.40;99.90;;;;;;5023675;28;20728;-66
2023/02/26 04:19:43;;;;;;;2.33;2.13;;;0.70;99.90;;;;;;5026203;28;20304;-68
2023/02/26 04:22:09;;;;;;;4.40;2.33;;;0.90;99.90;;;;;;5028609;28;20655;-68
2023/02/26 04:24:35;;;;;;;3.60;2.37;;;1.00;99.90;;;;;;5025513;28;20441;-68
2023/02/26 04:27:01;;;;;;;4.03;3.50;;;0.80;99.90;;;;;;5025474;28;20438;-67
2023/02/26 04:29:26;;;;;;;1.97;1.80;;;0.60;99.90;;;;;;5028151;28;20218;-65
2023/02/26 04:31:53;;;;;;;4.13;2.70;;;0.50;99.90;;;;;;5026505;28;20222;-65
2023/02/26 04:34:19;;;;;;;2.30;1.75;;;0.60;99.90;;;;;;5024962;28;20249;-68
2023/02/26 04:36:44;;;;;;;2.57;2.00;;;0.80;99.90;;;;;;5025314;28;20636;-68
2023/02/26 04:39:10;;;;;;;2.13;2.00;;;0.70;99.90;;;;;;5025759;28;20202;-68
2023/02/26 04:41:36;;;;;;;2.70;2.10;;;0.60;99.90;;;;;;5023360;28;20182;-68
2023/02/26 04:44:03;;;;;;;4.18;2.60;;;0.50;99.90;;;;;;5028036;28;20186;-68
2023/02/26 04:46:29;;;;;;;4.05;2.90;;;0.70;99.90;;;;;;5029060;28;20604;-67
2023/02/26 04:48:54;;;;;;;2.83;2.50;;;0.70;99.90;;;;;;5028378;28;20221;-68
2023/02/26 04:51:20;;;;;;;2.50;2.30;;;0.80;99.90;;;;;;5026035;28;20492;-66
2023/02/26 04:53:46;;;;;;;5.97;2.20;;;0.80;99.90;;;;;;5025735;28;20178;-66
2023/02/26 04:56:11;;;;;;;4.20;2.17;;;0.40;99.90;;;;;;5030619;28;20482;-66
2023/02/26 04:58:37;;;;;;;2.87;2.03;;;0.80;99.90;;;;;;5030679;28;20549;-66
2023/02/26 05:01:03;;;;;;;2.90;2.20;;;1.10;99.90;;;;;;5027845;28;20637;-66
2023/02/26 05:03:29;;;;;;;3.42;2.40;;;0.70;99.90;;;;;;5029168;28;20196;-66
2023/02/26 05:05:54;;;;;;;2.47;2.27;;;0.50;99.90;;;;;;5028594;28;20198;-66
2023/02/26 05:08:20;;;;;;;2.10;1.90;;;0.10;99.90;;;;;;5026121;28;20473;-66
2023/02/26 05:10:46;;;;;;;3.23;2.30;;;0.40;99.90;;;;;;5023415;28;20750;-69
2023/02/26 05:13:11;;;;;;;3.17;2.50;;;0.00;99.90;;;;;;5026574;28;20269;-66
2023/02/26 05:15:37;;;;;;;2.10;1.90;;;0.60;99.90;;;;;;5025416;28;20191;-64
2023/02/26 05:18:03;;;;;;;2.60;2.00;;;0.90;99.90;;;;;;5027599;28;20253;-66
2023/02/26 05:20:28;;;;;;;2.83;2.03;;;0.40;99.90;;;;;;5027862;28;20194;-65
2023/02/26 05:22:54;;;;;;;2.10;1.83;;;0.00;99.90;;;;;;5023681;28;20547;-67
2023/02/26 05:25:20;;;;;;;4.97;2.20;;;0.30;99.90;;;;;;5027881;28;20201;-67
2023/02/26 05:27:45;;;;;;;2.63;1.90;;;0.20;99.90;;;;;;5028772;28;20706;-67
2023/02/26 05:30:13;;;;;;;3.30;2.63;;;0.10;99.90;;;;;;5030340;28;20539;-65
2023/02/26 05:32:40;;;;;;;5.22;2.20;;;0.30;99.90;;;;;;5025105;28;20187;-65
2023/02/26 05:35:06;;;;;;;3.17;2.30;;;0.50;99.90;;;;;;5029087;28;20278;-64
2023/02/26 05:37:32;;;;;;;4.22;2.53;;;0.40;99.90;;;;;;5027736;28;20229;-64
2023/02/26 05:39:57;;;;;;;3.00;2.33;;;-0.40;99.90;;;;;;5030180;28;20191;-65
2023/02/26 05:42:23;;;;;;;3.97;2.30;;;0.50;99.90;;;;;;5029058;28;20191;-65
2023/02/26 05:44:49;;;;;;;3.47;2.40;;;0.10;99.90;;;;;;5026523;28;20546;-65
2023/02/26 05:47:15;;;;;;;2.87;2.37;;;0.30;99.90;;;;;;5023892;28;20947;-67
2023/02/26 05:49:41;;;;;;;4.13;2.58;;;0.30;99.90;;;;;;5027694;28;20548;-66
2023/02/26 05:52:07;;;;;;;2.60;2.40;;;0.00;99.90;;;;;;5027146;28;20999;-66
2023/02/26 05:54:33;;;;;;;2.50;2.07;;;-0.10;99.90;;;;;;5025373;28;20182;-66
2023/02/26 05:56:58;;;;;;;3.00;2.37;;;-0.50;99.90;;;;;;5028090;28;20819;-66
2023/02/26 05:59:24;;;;;;;4.50;2.97;;;0.60;99.90;;;;;;5030983;28;20518;-66
2023/02/26 06:01:50;;;;;;;6.30;2.70;;;0.20;99.90;;;;;;5028754;28;20990;-66
2023/02/26 06:04:16;;;;;;;3.73;2.37;;;-0.50;99.90;;;;;;5029589;28;20273;-66
2023/02/26 06:06:41;;;;;;;2.90;2.43;;;0.40;99.90;;;;;;5023735;28;20186;-72
2023/02/26 06:09:07;;;;;;;2.37;2.17;;;0.00;99.90;;;;;;5025656;28;20477;-68
2023/02/26 06:11:33;;;;;;;3.80;2.40;;;-0.10;99.90;;;;;;5027704;28;20699;-68
2023/02/26 06:13:59;;;;;;;3.35;2.20;;;0.50;99.90;;;;;;5031419;28;20440;-69
2023/02/26 06:16:25;;;;;;;3.30;2.20;;;0.00;99.90;;;;;;5026453;28;20261;-68
2023/02/26 06:18:50;;;;;;;2.40;2.20;;;0.20;99.90;;;;;;5029520;28;20240;-71
2023/02/26 06:21:17;;;;;;;2.53;2.33;;;0.40;99.90;;;;;;5028980;28;20193;-66
2023/02/26 06:23:43;;;;;;;6.40;2.58;;;-0.40;99.90;;;;;;5026447;28;20204;-68
2023/02/26 06:26:09;;;;;;;4.50;3.60;;;0.20;99.90;;;;;;5032543;28;20644;-70
2023/02/26 06:28:35;;;;;;;2.60;2.40;;;-0.20;99.90;;;;;;5033224;28;20461;-68
2023/02/26 06:31:01;;;;;;;4.57;2.30;;;0.10;99.90;;;;;;5030891;28;20210;-68
2023/02/26 06:33:26;;;;;;;2.60;2.13;;;0.10;99.90;;;;;;5027741;28;20516;-68
2023/02/26 06:35:52;;;;;;;2.43;2.23;;;0.30;99.90;;;;;;5014113;28;20196;-67
2023/02/26 06:38:18;;;;;;;4.00;2.80;;;0.00;99.90;;;;;;5026776;28;20718;-68
2023/02/26 06:40:44;;;;;;;2.78;2.28;;;0.30;99.90;;;;;;5026879;28;20190;-68
2023/02/26 06:43:10;;;;;;;4.20;2.35;;;0.20;99.90;;;;;;5029940;28;20627;-69
2023/02/26 06:45:36;;;;;;;4.20;2.80;;;0.30;99.90;;;;;;5032706;28;20484;-68
2023/02/26 06:48:02;;;;;;;4.53;2.97;;;0.60;99.90;;;;;;5031045;28;20312;-68
2023/02/26 06:50:27;;;;;;;3.58;2.50;;;0.50;99.90;;;;;;5030565;28;20214;-70
2023/02/26 06:52:53;;;;;;;3.67;2.50;;;0.50;99.90;;;;;;5031990;28;20195;-71
2023/02/26 06:55:20;;;;;;;4.00;3.17;;;0.60;99.90;;;;;;5033577;28;20224;-68
2023/02/26 06:57:47;;;;;;;3.67;2.65;;;0.80;99.90;;;;;;5025626;28;20219;-71
2023/02/26 07:00:13;;;;;;;4.65;2.60;;;0.50;99.90;;;;;;5030482;28;20197;-71
2023/02/26 07:02:38;;;;;;;3.58;2.40;;;1.00;99.90;;;;;;5026976;28;20186;-70
2023/02/26 07:05:04;;;;;;;3.17;2.50;;;1.20;99.90;;;;;;5020580;28;20183;-69
2023/02/26 07:07:30;;;;;;;3.60;2.55;;;1.00;99.90;;;;;;5027370;28;20619;-69
2023/02/26 07:09:56;;;;;;;7.60;2.80;;;0.40;99.90;;;;;;5028797;28;20289;-69
2023/02/26 07:12:21;;;;;;;3.20;2.60;;;0.80;99.90;;;;;;5029771;28;20224;-69
2023/02/26 07:14:47;;;;;;;5.43;2.60;;;0.60;99.90;;;;;;5026319;28;20274;-67
2023/02/26 07:17:19;;;;;;;3.27;2.13;;;0.10;99.90;;;;;;5025322;28;20229;-67
2023/02/26 07:19:46;;;;;;;2.30;2.10;;;1.30;99.90;;;;;;5024912;28;20198;-67
2023/02/26 07:22:11;;;;;;;3.30;2.35;;;1.30;99.90;;;;;;5023448;28;20187;-67
2023/02/26 07:24:37;;;;;;;2.10;1.93;;;1.00;99.90;;;;;;5026163;28;20190;-69
2023/02/26 07:27:03;;;;;;;3.43;2.60;;;1.20;99.90;;;;;;5027920;28;20201;-67
2023/02/26 07:29:28;;;;;;;5.60;2.60;;;1.60;99.90;;;;;;5024853;28;20288;-68
2023/02/26 07:31:54;;;;;;;3.47;2.33;;;1.50;99.90;;;;;;5027168;28;20290;-66
2023/02/26 07:34:19;;;;;;;3.57;2.10;;;1.30;99.90;;;;;;5026508;28;20274;-65
2023/02/26 07:36:45;;;;;;;3.93;2.20;;;1.30;99.90;;;;;;5028153;28;20187;-67
2023/02/26 07:39:11;;;;;;;3.07;2.77;;;1.70;99.90;;;;;;5023705;28;20256;-65
2023/02/26 07:41:36;;;;;;;5.27;2.23;;;1.40;99.90;;;;;;5026956;28;20228;-68
2023/02/26 07:44:02;;;;;;;2.37;2.17;;;2.30;99.90;;;;;;5030580;28;20483;-68
2023/02/26 07:46:28;;;;;;;7.27;2.17;;;1.70;99.90;;;;;;5028189;28;20216;-70
2023/02/26 07:48:53;;;;;;;3.93;2.60;;;2.10;99.90;;;;;;5023413;28;20254;-73
2023/02/26 07:51:19;;;;;;;2.27;2.07;;;1.70;99.90;;;;;;5030023;28;20210;-71
2023/02/26 07:53:44;;;;;;;6.03;2.67;;;2.40;99.70;;;;;;5022558;28;20552;-67
2023/02/26 07:56:10;;;;;;;2.10;1.90;;;2.70;99.40;;;;;;5025633;28;20190;-67
2023/02/26 07:58:36;;;;;;;2.50;1.87;;;1.70;98.50;;;;;;5025954;28;20202;-68
2023/02/26 08:01:01;;;;;;;2.30;1.83;;;2.10;99.10;;;;;;5026162;28;20190;-68
2023/02/26 08:03:27;;;;;;;5.73;1.97;;;2.10;99.70;;;;;;5021849;28;20201;-67
2023/02/26 08:05:53;;;;;;;1.60;1.50;;;2.20;99.70;;;;;;5027718;28;20652;-70
2023/02/26 08:08:18;;;;;;;3.43;2.33;;;2.40;99.90;;;;;;5023046;28;20721;-70
2023/02/26 08:10:44;;;;;;;2.30;2.10;;;2.00;99.90;;;;;;5028226;28;20340;-68
2023/02/26 08:13:09;;;;;;;4.30;2.23;;;2.00;99.90;;;;;;5028834;28;20205;-70
2023/02/26 08:15:35;;;;;;;5.13;2.13;;;2.10;99.90;;;;;;5028040;28;20206;-68
2023/02/26 08:18:01;;;;;;;3.00;2.30;;;2.30;99.90;;;;;;5026636;28;20780;-68
2023/02/26 08:20:26;;;;;;;2.43;2.10;;;2.20;99.90;;;;;;5026157;28;20196;-66
2023/02/26 08:22:52;;;;;;;4.40;2.50;;;2.50;99.90;;;;;;5026424;28;20195;-68
2023/02/26 08:25:18;;;;;;;2.40;1.87;;;2.60;99.90;;;;;;5027745;28;20190;-70
2023/02/26 08:27:43;;;;;;;3.40;2.37;;;2.70;99.90;;;;;;5026868;28;20733;-69
2023/02/26 08:30:10;;;;;;;4.40;2.07;;;2.80;99.90;;;;;;5028362;28;20577;-71
2023/02/26 08:32:38;;;;;;;2.88;2.25;;;2.90;99.60;;;;;;5013968;28;20190;-70
2023/02/26 08:35:04;;;;;;;2.78;2.10;;;2.90;99.90;;;;;;5034113;28;20198;-69
2023/02/26 08:37:31;;;;;;;6.93;1.80;;;2.10;98.70;;;;;;5026249;28;20187;-71
2023/02/26 08:39:56;;;;;;;3.85;2.60;;;2.10;99.40;;;;;;5021627;28;20191;-72
2023/02/26 08:42:22;;;;;;;3.03;2.47;;;2.10;99.80;;;;;;5030918;28;20193;-70
2023/02/26 08:44:48;;;;;;;2.93;2.40;;;2.00;99.90;;;;;;5029980;28;20194;-69
2023/02/26 08:47:13;;;;;;;2.50;1.90;;;2.20;99.90;;;;;;5027038;28;20202;-69
2023/02/26 08:49:39;;;;;;;2.83;2.23;;;2.30;99.90;;;;;;5028358;28;20477;-69
2023/02/26 08:52:05;;;;;;;3.03;2.00;;;2.40;99.50;;;;;;5029156;28;20489;-71
2023/02/26 08:54:31;;;;;;;2.10;1.80;;;2.70;99.70;;;;;;5026977;28;20682;-70
2023/02/26 08:56:57;;;;;;;2.43;2.00;;;2.70;99.20;;;;;;5026161;28;20445;-68
2023/02/26 08:59:24;;;;;;;4.65;2.35;;;2.30;99.30;;;;;;5028719;28;20198;-68
2023/02/26 09:01:50;;;;;;;1.98;1.73;;;2.20;99.80;;;;;;5026796;28;20191;-68
2023/02/26 09:04:16;;;;;;;4.50;2.40;;;2.40;99.90;;;;;;5030181;28;20202;-68
2023/02/26 09:06:41;;;;;;;3.40;1.95;;;2.10;99.90;;;;;;5028243;28;20453;-68
2023/02/26 09:09:07;;;;;;;7.43;3.10;;;2.00;99.90;;;;;;5027844;28;20615;-68
2023/02/26 09:11:33;;;;;;;2.07;1.87;;;2.10;99.90;;;;;;5029909;28;20237;-67
2023/02/26 09:14:01;;;;;;;3.28;2.20;;;2.00;99.90;;;;;;5023948;28;20250;-68
2023/02/26 09:16:26;;;;;;;4.15;2.00;;;2.00;99.90;;;;;;5030190;28;20655;-67
2023/02/26 09:18:52;;;;;;;2.17;1.87;;;2.40;99.90;;;;;;5027285;28;20203;-65
2023/02/26 09:21:18;;;;;;;4.37;2.20;;;1.70;99.90;;;;;;5032921;28;20644;-66
2023/02/26 09:23:43;;;;;;;2.97;1.87;;;1.80;99.90;;;;;;5031809;28;20204;-65
2023/02/26 09:26:09;;;;;;;1.60;1.50;;;2.00;99.90;;;;;;5031330;28;20206;-67
2023/02/26 09:28:35;;;;;;;2.43;1.77;;;2.10;99.90;;;;;;5031548;28;20218;-66
2023/02/26 09:31:00;;;;;;;2.10;1.73;;;2.00;99.90;;;;;;5029358;28;20727;-67
2023/02/26 09:33:26;;;;;;;3.07;2.13;;;1.90;99.90;;;;;;5025205;28;20256;-67
2023/02/26 09:35:52;;;;;;;2.77;2.13;;;2.30;99.90;;;;;;5032776;28;20782;-67
2023/02/26 09:38:19;;;;;;;3.33;2.30;;;2.30;99.90;;;;;;5027912;28;20198;-69
2023/02/26 09:40:52;;;;;;;4.05;2.75;;;2.40;99.90;;;;;;5028222;28;20456;-68
2023/02/26 09:43:37;;;;;;;2.65;1.92;;;2.50;99.90;;;;;;5029195;28;20261;-69
2023/02/26 09:46:14;;;;;;;2.03;1.80;;;2.20;99.90;;;;;;5028127;28;20195;-70
2023/02/26 09:48:41;;;;;;;3.95;2.20;;;2.30;99.90;;;;;;5028968;28;20352;-67
2023/02/26 09:51:11;;;;;;;2.45;2.25;;;2.40;99.90;;;;;;5029898;28;20206;-71
2023/02/26 09:53:40;;;;;;;1.75;1.40;;;2.20;99.90;;;;;;5029890;28;20670;-67
2023/02/26 09:56:23;;;;;;;2.03;1.75;;;2.20;99.90;;;;;;5028844;28;20688;-67
2023/02/26 09:58:52;;;;;;;4.07;1.83;;;2.10;99.90;;;;;;5028589;28;20263;-67
2023/02/26 10:01:33;;;;;;;1.55;1.45;;;1.70;99.90;;;;;;5026276;28;20191;-66
2023/02/26 10:04:27;;;;;;;2.00;1.50;;;1.40;99.90;;;;;;5025968;28;20202;-69
2023/02/26 10:07:05;;;;;;;1.67;1.58;;;1.90;99.90;;;;;;5029119;28;20178;-72
2023/02/26 10:09:49;;;;;;;2.85;1.65;;;2.00;99.90;;;;;;5027767;28;20264;-69
2023/02/26 10:12:18;;;;;;;2.50;1.80;;;2.00;99.90;;;;;;5029169;28;20935;-70
2023/02/26 10:14:50;;;;;;;5.38;2.13;;;1.70;99.90;;;;;;5028202;28;20190;-68
2023/02/26 10:17:25;;;;;;;3.03;2.25;;;2.20;99.90;;;;;;5023042;28;20218;-68
2023/02/26 10:19:55;;;;;;;2.60;1.73;;;2.20;99.90;;;;;;5031613;28;20223;-70
2023/02/26 10:22:36;;;;;;;4.07;2.38;;;1.50;99.90;;;;;;5029209;28;20591;-68
2023/02/26 10:25:11;;;;;;;2.13;1.83;;;2.20;99.90;;;;;;5028040;28;20313;-69
2023/02/26 10:28:00;;;;;;;4.53;2.00;;;2.40;99.90;;;;;;5030711;28;20684;-68
2023/02/26 10:30:34;;;;;;;2.80;1.48;;;2.30;99.90;;;;;;5029228;28;20184;-70
2023/02/26 10:33:21;;;;;;;2.28;1.52;;;2.40;99.90;;;;;;5025843;28;20543;-70
2023/02/26 10:35:51;;;;;;;4.13;2.33;;;2.50;99.90;;;;;;5031995;28;20219;-67
2023/02/26 10:38:23;;;;;;;2.60;2.15;;;2.40;99.90;;;;;;5028200;28;20198;-68
2023/02/26 10:41:02;;;;;;;3.92;2.05;;;2.60;99.90;;;;;;5029563;28;20194;-68
2023/02/26 10:43:34;;;;;;;2.65;1.77;;;2.50;99.90;;;;;;5029684;28;20257;-68
2023/02/26 10:46:24;;;;;;;1.90;1.75;;;2.40;99.90;;;;;;5029321;28;20244;-72
2023/02/26 10:49:02;;;;;;;1.98;1.77;;;2.50;99.90;;;;;;5026063;28;20330;-71
2023/02/26 10:51:36;;;;;;;2.28;1.80;;;2.10;99.90;;;;;;5025610;28;20289;-70
2023/02/26 10:54:49;;;;;;;3.17;1.98;;;2.30;99.90;;;;;;5023604;28;20305;-70
2023/02/26 10:57:27;;;;;;;1.55;1.45;;;2.30;99.90;;;;;;4996040;28;20179;-69
2023/02/26 10:59:53;;;;;;;2.45;2.10;;;2.40;99.90;;;;;;5019135;28;20224;-71
2023/02/26 11:02:39;;;;;;;3.10;2.03;;;2.50;99.70;;;;;;5024262;28;20282;-71
2023/02/26 11:05:12;;;;;;;2.50;2.03;;;2.50;99.90;;;;;;5027978;28;20297;-70
2023/02/26 11:07:38;;;;;;;2.08;1.88;;;2.40;99.50;;;;;;5026419;28;20689;-72
2023/02/26 11:10:16;;;;;;;1.60;1.50;;;2.50;99.90;;;;;;5026679;28;20220;-72
2023/02/26 11:12:43;;;;;;;2.30;1.60;;;2.20;99.90;;;;;;5029555;28;20201;-72
2023/02/26 11:15:22;;;;;;;2.03;1.83;;;2.80;99.60;;;;;;5028978;28;20309;-72
2023/02/26 11:17:53;;;;;;;3.97;2.03;;;2.80;99.20;;;;;;5024010;28;20247;-72
2023/02/26 11:20:27;;;;;;;2.53;1.90;;;2.70;99.40;;;;;;5028110;28;20769;-73
2023/02/26 11:22:56;;;;;;;2.65;1.95;;;2.90;99.20;;;;;;5028543;28;20183;-72
2023/02/26 11:25:29;;;;;;;2.03;1.83;;;3.20;98.70;;;;;;5026137;28;20232;-72
2023/02/26 11:28:07;;;;;;;1.90;1.60;;;3.10;98.40;;;;;;5028137;28;20218;-72
2023/02/26 11:30:37;;;;;;;2.38;1.65;;;3.10;98.50;;;;;;5028795;28;20202;-72
2023/02/26 11:33:33;;;;;;;1.95;1.85;;;2.80;98.00;;;;;;5026710;28;20671;-73
2023/02/26 11:36:02;;;;;;;1.90;1.80;;;2.70;98.00;;;;;;5027191;28;20187;-70
2023/02/26 11:38:36;;;;;;;2.00;1.77;;;3.40;97.80;;;;;;5026314;28;20210;-72
2023/02/26 11:41:03;;;;;;;3.35;2.10;;;3.40;98.00;;;;;;5028219;28;20187;-71
2023/02/26 11:43:41;;;;;;;1.60;1.50;;;3.10;97.60;;;;;;5028651;28;20746;-72
2023/02/26 11:46:08;;;;;;;1.67;1.58;;;3.50;97.40;;;;;;5027244;28;20732;-71
2023/02/26 11:48:42;;;;;;;3.40;1.90;;;3.00;96.80;;;;;;5024963;28;20228;-71
2023/02/26 11:51:13;;;;;;;2.85;1.90;;;2.80;97.50;;;;;;5028578;28;20202;-71
2023/02/26 11:53:51;;;;;;;1.70;1.60;;;3.40;97.30;;;;;;5026994;28;20278;-72
2023/02/26 11:56:39;;;;;;;1.88;1.73;;;2.90;97.10;;;;;;5028371;28;20182;-72
2023/02/26 11:59:20;;;;;;;5.00;1.77;;;3.00;97.10;;;;;;5026812;28;20302;-72
2023/02/26 12:01:47;;;;;;;2.22;2.00;;;3.10;97.50;;;;;;5027445;28;20229;-72
2023/02/26 12:04:18;;;;;;;1.50;1.40;;;2.80;97.50;;;;;;5025721;28;20183;-72
2023/02/26 12:06:48;;;;;;;1.60;1.50;;;2.90;97.00;;;;;;5027690;28;20196;-72
2023/02/26 12:09:13;;;;;;;1.40;1.30;;;3.30;97.80;;;;;;5028062;28;20608;-71
2023/02/26 12:11:48;;;;;;;2.43;1.87;;;2.90;97.40;;;;;;5028384;28;20218;-71
2023/02/26 12:14:34;;;;;;;1.90;1.70;;;3.10;98.60;;;;;;5028426;28;20186;-72
2023/02/26 12:17:18;;;;;;;2.60;1.60;;;3.20;99.20;;;;;;5024118;28;20189;-72
2023/02/26 12:19:50;;;;;;;1.70;1.60;;;3.20;98.90;;;;;;5026208;28;20625;-72
2023/02/26 12:22:43;;;;;;;1.60;1.50;;;3.40;99.50;;;;;;5028371;28;20271;-72
2023/02/26 12:25:21;;;;;;;1.60;1.50;;;3.50;98.80;;;;;;5026893;28;20191;-72
2023/02/26 12:28:10;;;;;;;1.40;1.30;;;3.40;98.10;;;;;;5028672;28;20296;-71
2023/02/26 12:30:48;;;;;;;2.20;2.00;;;2.80;97.20;;;;;;5025982;28;20215;-71
2023/02/26 12:33:46;;;;;;;1.65;1.55;;;3.50;98.20;;;;;;5024023;28;20187;-72
2023/02/26 12:36:39;;;;;;;1.95;1.75;;;3.10;98.30;;;;;;5015915;28;20238;-73
2023/02/26 12:39:40;;;;;;;1.92;1.58;;;3.20;98.90;;;;;;5026438;28;20221;-72
2023/02/26 12:42:50;;;;;;;1.52;1.42;;;3.30;98.80;;;;;;5026700;28;20213;-73
2023/02/26 12:45:32;;;;;;;2.00;1.60;;;2.90;98.20;;;;;;5036308;28;20192;-71
2023/02/26 12:48:03;;;;;;;1.60;1.42;;;3.20;98.50;;;;;;5027313;28;20218;-71
2023/02/26 12:50:59;;;;;;;2.75;1.60;;;2.70;98.10;;;;;;5029841;28;20187;-70
2023/02/26 12:53:43;;;;;;;1.60;1.50;;;3.30;98.00;;;;;;5029545;28;20184;-70
2023/02/26 12:56:40;;;;;;;1.73;1.63;;;3.20;97.90;;;;;;5021368;28;20183;-73
2023/02/26 12:59:14;;;;;;;1.70;1.60;;;3.50;97.90;;;;;;5027587;28;20215;-71
2023/02/26 13:02:25;;;;;;;1.63;1.50;;;3.60;97.60;;;;;;5027601;28;20253;-71
2023/02/26 13:05:20;;;;;;;2.00;1.63;;;3.60;97.30;;;;;;5024488;28;20218;-72
2023/02/26 13:07:58;;;;;;;2.40;1.73;;;3.70;97.40;;;;;;5024866;28;20215;-72
2023/02/26 13:10:40;;;;;;;1.60;1.50;;;3.80;97.40;;;;;;5025391;28;20679;-72
2023/02/26 13:13:29;;;;;;;1.48;1.38;;;3.70;97.20;;;;;;5025434;28;20275;-72
2023/02/26 13:16:09;;;;;;;1.35;1.25;;;3.70;97.00;;;;;;5023110;28;20184;-72
2023/02/26 13:18:49;;;;;;;1.63;1.50;;;3.70;96.10;;;;;;5026375;28;20224;-70
2023/02/26 13:21:14;;;;;;;3.00;2.03;;;4.00;96.00;;;;;;5030669;28;20261;-73
2023/02/26 13:24:04;;;;;;;2.83;1.30;;;3.80;96.10;;;;;;5034162;28;20186;-71